Time;durP1;ratioP1;P1;durP2;ratioP2;P2;SDS_P1;SDS_P2;PMS_P1;PMS_P2;Temp;Humidity;BMP_temperature;BMP_pressure;BME280_temperature;BME280_humidity;BME280_pressure;Samples;Min_cycle;Max_cycle;Signal;HPM_P1;HPM_P2
2024/01/09 00:02:17;;;;;;;5.57;3.77;;;-3.80;99.90;;;;;;5072296;28;20171;-75
2024/01/09 00:04:42;;;;;;;6.77;4.00;;;-3.80;99.90;;;;;;5072337;28;20232;-76
2024/01/09 00:07:08;;;;;;;10.70;4.60;;;-3.80;99.90;;;;;;5070786;28;20207;-76
2024/01/09 00:09:34;;;;;;;7.77;4.03;;;-3.80;99.90;;;;;;5072069;28;20221;-76
2024/01/09 00:12:00;;;;;;;6.53;4.20;;;-3.80;99.90;;;;;;5072214;28;20213;-76
2024/01/09 00:14:25;;;;;;;7.43;3.83;;;-3.90;99.90;;;;;;5072144;28;20173;-76
2024/01/09 00:16:51;;;;;;;7.13;3.73;;;-3.90;99.90;;;;;;5071980;28;20717;-75
2024/01/09 00:19:17;;;;;;;7.73;4.20;;;-3.90;99.90;;;;;;5072164;28;20303;-76
2024/01/09 00:21:42;;;;;;;7.87;3.90;;;-3.80;99.90;;;;;;5072215;28;20558;-76
2024/01/09 00:24:08;;;;;;;6.57;4.03;;;-3.80;99.90;;;;;;5070786;28;20643;-77
2024/01/09 00:26:44;;;;;;;5.57;3.80;;;-3.90;99.90;;;;;;5071979;28;20200;-76
2024/01/09 00:29:09;;;;;;;7.30;4.37;;;-3.90;99.90;;;;;;5070640;28;20168;-76
2024/01/09 00:31:35;;;;;;;7.60;4.10;;;-3.90;99.90;;;;;;5073448;28;20669;-75
2024/01/09 00:34:01;;;;;;;4.83;3.40;;;-3.90;99.90;;;;;;5075938;28;20187;-75
2024/01/09 00:36:27;;;;;;;6.53;4.30;;;-3.90;99.90;;;;;;5090201;28;20282;-75
2024/01/09 00:38:52;;;;;;;5.87;3.53;;;-3.90;99.90;;;;;;5094963;28;20174;-76
2024/01/09 00:41:18;;;;;;;8.83;4.53;;;-4.00;99.90;;;;;;5094806;28;20634;-76
2024/01/09 00:43:43;;;;;;;6.97;4.17;;;-4.00;99.90;;;;;;5094851;28;20225;-75
2024/01/09 00:46:09;;;;;;;6.00;3.97;;;-3.90;99.90;;;;;;5096507;28;20204;-76
2024/01/09 00:48:34;;;;;;;6.10;3.70;;;-3.90;99.90;;;;;;5080717;28;20175;-76
2024/01/09 00:51:00;;;;;;;5.33;3.97;;;-4.00;99.90;;;;;;5075869;28;20229;-76
2024/01/09 00:53:26;;;;;;;5.73;3.60;;;-3.90;99.90;;;;;;5074913;28;20628;-76
2024/01/09 00:55:51;;;;;;;6.17;3.80;;;-4.00;99.90;;;;;;5074192;28;20194;-76
2024/01/09 00:58:17;;;;;;;6.67;4.13;;;-4.00;99.90;;;;;;5075823;28;20173;-76
2024/01/09 01:00:42;;;;;;;6.73;3.93;;;-4.10;99.90;;;;;;5077099;28;20174;-76
2024/01/09 01:03:08;;;;;;;6.73;4.30;;;-4.00;99.90;;;;;;5095965;28;20169;-76
2024/01/09 01:05:34;;;;;;;6.23;4.33;;;-4.10;99.90;;;;;;5094424;28;20187;-76
2024/01/09 01:07:59;;;;;;;4.73;3.80;;;-4.00;99.90;;;;;;5095746;28;20214;-76
2024/01/09 01:10:25;;;;;;;4.37;3.50;;;-4.00;99.90;;;;;;5095101;28;20239;-76
2024/01/09 01:12:50;;;;;;;5.23;3.47;;;-4.10;99.90;;;;;;5094368;28;20170;-76
2024/01/09 01:15:16;;;;;;;6.67;3.70;;;-4.10;99.90;;;;;;5094133;28;20285;-76
2024/01/09 01:17:42;;;;;;;5.63;3.70;;;-4.10;99.90;;;;;;5095380;28;20188;-75
2024/01/09 01:20:09;;;;;;;5.57;3.30;;;-4.10;99.90;;;;;;5095380;28;20182;-76
2024/01/09 01:22:34;;;;;;;6.07;3.87;;;-4.10;99.90;;;;;;5094479;28;20722;-77
2024/01/09 01:25:00;;;;;;;5.43;3.27;;;-4.10;99.90;;;;;;5095801;28;20228;-77
2024/01/09 01:27:25;;;;;;;5.67;3.63;;;-4.10;99.90;;;;;;5095740;28;20206;-77
2024/01/09 01:29:51;;;;;;;4.80;3.13;;;-4.10;99.90;;;;;;5096222;28;20198;-77
2024/01/09 01:32:16;;;;;;;4.87;3.30;;;-4.20;99.90;;;;;;5094227;28;20182;-76
2024/01/09 01:34:42;;;;;;;5.47;3.70;;;-4.10;99.90;;;;;;5093507;28;20184;-75
2024/01/09 01:37:07;;;;;;;6.20;3.80;;;-4.10;99.90;;;;;;5094387;28;20178;-77
2024/01/09 01:39:33;;;;;;;6.77;3.70;;;-4.10;99.90;;;;;;5096832;28;20174;-77
2024/01/09 01:41:59;;;;;;;5.60;3.63;;;-4.10;99.90;;;;;;5095096;28;20239;-77
2024/01/09 01:44:24;;;;;;;5.70;3.40;;;-4.10;99.90;;;;;;5095511;28;20177;-77
2024/01/09 01:46:50;;;;;;;5.97;3.07;;;-4.10;99.90;;;;;;5095046;28;20784;-77
2024/01/09 01:49:18;;;;;;;5.70;3.50;;;-4.20;99.90;;;;;;5095605;28;20177;-77
2024/01/09 01:51:46;;;;;;;6.07;3.53;;;-4.20;99.90;;;;;;5094886;28;20179;-77
2024/01/09 01:54:13;;;;;;;4.27;3.33;;;-4.10;99.90;;;;;;5093598;28;20177;-76
2024/01/09 01:56:40;;;;;;;4.47;3.30;;;-4.20;99.90;;;;;;5095289;28;20198;-76
2024/01/09 01:59:07;;;;;;;4.93;3.20;;;-4.20;99.90;;;;;;5094175;28;20590;-75
2024/01/09 02:01:32;;;;;;;6.13;3.17;;;-4.20;99.90;;;;;;5094664;28;20198;-76
2024/01/09 02:03:59;;;;;;;5.23;3.50;;;-4.20;99.90;;;;;;5093397;28;20212;-76
2024/01/09 02:06:24;;;;;;;4.80;3.60;;;-4.20;99.90;;;;;;5094518;28;20200;-75
2024/01/09 02:08:52;;;;;;;7.17;3.33;;;-4.20;99.90;;;;;;5095398;28;20733;-75
2024/01/09 02:11:17;;;;;;;4.77;3.20;;;-4.20;99.90;;;;;;5094715;28;20243;-77
2024/01/09 02:13:43;;;;;;;5.60;3.17;;;-4.20;99.90;;;;;;5095299;28;20634;-75
2024/01/09 02:16:08;;;;;;;5.13;3.40;;;-4.30;99.90;;;;;;5096499;28;20194;-77
2024/01/09 02:18:34;;;;;;;5.23;3.43;;;-4.30;99.90;;;;;;5093779;28;20189;-76
2024/01/09 02:20:59;;;;;;;4.47;3.23;;;-4.30;99.90;;;;;;5094483;28;20181;-78
2024/01/09 02:23:25;;;;;;;8.70;3.50;;;-4.30;99.90;;;;;;5095109;28;20174;-77
2024/01/09 02:25:52;;;;;;;5.57;3.40;;;-4.40;99.90;;;;;;5095789;28;20192;-77
2024/01/09 02:28:58;;;;;;;5.00;3.10;;;-4.30;99.90;;;;;;5096158;28;20201;-78
2024/01/09 02:31:24;;;;;;;6.17;2.83;;;-4.30;99.90;;;;;;5095333;28;20218;-77
2024/01/09 02:33:49;;;;;;;4.83;3.10;;;-4.30;99.90;;;;;;5096479;28;20233;-76
2024/01/09 02:36:15;;;;;;;5.83;3.33;;;-4.30;99.90;;;;;;5096275;28;20195;-77
2024/01/09 02:38:41;;;;;;;6.17;3.57;;;-4.30;99.90;;;;;;5094129;28;20200;-76
2024/01/09 02:41:06;;;;;;;4.07;2.93;;;-4.30;99.90;;;;;;5094373;28;20178;-76
2024/01/09 02:43:32;;;;;;;3.33;2.50;;;-4.40;99.90;;;;;;5092972;28;20235;-75
2024/01/09 02:45:57;;;;;;;5.20;3.30;;;-4.30;99.90;;;;;;5092344;28;20236;-77
2024/01/09 02:48:23;;;;;;;5.43;3.33;;;-4.40;99.90;;;;;;5094117;28;20642;-75
2024/01/09 02:50:48;;;;;;;4.70;3.03;;;-4.40;99.90;;;;;;5094296;28;20286;-77
2024/01/09 02:53:14;;;;;;;5.57;3.50;;;-4.40;99.90;;;;;;5093340;28;20163;-78
2024/01/09 02:55:39;;;;;;;5.90;3.47;;;-4.40;99.90;;;;;;5094112;28;20202;-77
2024/01/09 02:58:05;;;;;;;6.03;3.60;;;-4.40;99.90;;;;;;5093709;28;20170;-76
2024/01/09 03:00:30;;;;;;;5.10;3.03;;;-4.30;99.90;;;;;;5093612;28;20173;-76
2024/01/09 03:02:56;;;;;;;6.00;3.43;;;-4.40;99.90;;;;;;5093929;28;20536;-76
2024/01/09 03:05:21;;;;;;;5.73;3.30;;;-4.40;99.90;;;;;;5091994;28;20195;-76
2024/01/09 03:07:47;;;;;;;5.83;3.43;;;-4.40;99.90;;;;;;5093423;28;20199;-76
2024/01/09 03:10:13;;;;;;;5.33;2.93;;;-4.40;99.90;;;;;;5091988;28;20241;-74
2024/01/09 03:12:38;;;;;;;3.97;3.13;;;-4.50;99.90;;;;;;5092918;28;20163;-77
2024/01/09 03:15:04;;;;;;;5.90;3.90;;;-4.50;99.90;;;;;;5092766;28;20612;-76
2024/01/09 03:17:30;;;;;;;5.23;3.50;;;-4.60;99.90;;;;;;5093416;28;20178;-75
2024/01/09 03:19:55;;;;;;;9.03;3.23;;;-4.60;99.90;;;;;;5093437;28;20174;-76
2024/01/09 03:22:21;;;;;;;6.23;3.50;;;-4.60;99.90;;;;;;5093184;28;20613;-76
2024/01/09 03:24:46;;;;;;;7.00;3.87;;;-4.60;99.90;;;;;;5092953;28;20174;-76
2024/01/09 03:27:12;;;;;;;5.87;3.33;;;-4.60;99.90;;;;;;5091594;28;20569;-76
2024/01/09 03:29:38;;;;;;;5.67;3.37;;;-4.60;99.90;;;;;;5091665;28;20177;-76
2024/01/09 03:32:05;;;;;;;6.43;3.50;;;-4.60;99.90;;;;;;5091583;28;20653;-76
2024/01/09 03:34:31;;;;;;;4.03;2.73;;;-4.60;99.90;;;;;;5090786;28;20179;-76
2024/01/09 03:36:57;;;;;;;5.67;3.53;;;-4.50;99.90;;;;;;5092583;28;20190;-75
2024/01/09 03:39:22;;;;;;;7.13;3.23;;;-4.60;99.90;;;;;;5092395;28;20209;-76
2024/01/09 03:41:48;;;;;;;5.77;3.33;;;-4.60;99.90;;;;;;5093181;28;20232;-78
2024/01/09 03:44:14;;;;;;;8.73;3.37;;;-4.60;99.90;;;;;;5094102;28;20176;-78
2024/01/09 03:46:39;;;;;;;7.70;4.10;;;-4.60;99.90;;;;;;5094231;28;20202;-75
2024/01/09 03:49:05;;;;;;;6.53;3.10;;;-4.60;99.90;;;;;;5091660;28;20170;-77
2024/01/09 03:51:31;;;;;;;6.50;3.07;;;-4.60;99.90;;;;;;5092229;28;20166;-77
2024/01/09 03:53:56;;;;;;;6.20;3.63;;;-4.60;99.90;;;;;;5092861;28;20209;-77
2024/01/09 03:56:23;;;;;;;4.13;2.93;;;-4.60;99.90;;;;;;5091589;28;20194;-75
2024/01/09 03:58:48;;;;;;;5.97;3.40;;;-4.60;99.90;;;;;;5092476;28;20170;-75
2024/01/09 04:01:14;;;;;;;4.33;2.93;;;-4.60;99.90;;;;;;5092479;28;20673;-75
2024/01/09 04:03:40;;;;;;;6.77;3.43;;;-4.60;99.90;;;;;;5092440;28;20174;-76
2024/01/09 04:06:06;;;;;;;6.13;3.53;;;-4.60;99.90;;;;;;5092412;28;20752;-76
2024/01/09 04:08:31;;;;;;;7.37;3.67;;;-4.60;99.90;;;;;;5091181;28;20172;-76
2024/01/09 04:10:57;;;;;;;5.23;3.17;;;-4.60;99.90;;;;;;5093143;28;20699;-76
2024/01/09 04:13:22;;;;;;;5.20;3.27;;;-4.60;99.90;;;;;;5092512;28;20170;-77
2024/01/09 04:15:48;;;;;;;5.20;3.37;;;-4.60;99.90;;;;;;5092400;28;20249;-76
2024/01/09 04:18:13;;;;;;;5.27;3.67;;;-4.60;99.90;;;;;;5092385;28;20166;-76
2024/01/09 04:20:39;;;;;;;6.87;4.10;;;-4.60;99.90;;;;;;5091040;28;20179;-75
2024/01/09 04:23:05;;;;;;;5.57;3.20;;;-4.60;99.90;;;;;;5091119;28;20261;-77
2024/01/09 04:25:31;;;;;;;7.20;3.73;;;-4.60;99.90;;;;;;5090928;28;20285;-74
2024/01/09 04:27:56;;;;;;;5.13;3.17;;;-4.70;99.90;;;;;;5090782;28;20696;-74
2024/01/09 04:30:22;;;;;;;7.40;4.00;;;-4.70;99.90;;;;;;5092029;28;20249;-75
2024/01/09 04:32:47;;;;;;;5.83;3.47;;;-4.70;99.90;;;;;;5092074;28;20284;-77
2024/01/09 04:35:13;;;;;;;6.70;3.77;;;-4.80;99.90;;;;;;5089574;28;20214;-76
2024/01/09 04:37:38;;;;;;;6.27;3.70;;;-4.70;99.90;;;;;;5090686;28;20228;-76
2024/01/09 04:40:05;;;;;;;6.60;3.60;;;-4.70;99.90;;;;;;5092331;28;20189;-76
2024/01/09 04:42:31;;;;;;;6.20;3.63;;;-4.70;99.90;;;;;;5090649;28;20181;-76
2024/01/09 04:44:57;;;;;;;6.43;3.60;;;-4.80;99.90;;;;;;5092120;28;20171;-76
2024/01/09 04:47:22;;;;;;;8.53;4.23;;;-4.80;99.90;;;;;;5091907;28;20557;-76
2024/01/09 04:49:48;;;;;;;5.87;3.30;;;-4.80;99.90;;;;;;5091961;28;20664;-76
2024/01/09 04:52:14;;;;;;;5.80;3.40;;;-4.80;99.90;;;;;;5090548;28;20196;-76
2024/01/09 04:54:40;;;;;;;6.17;4.17;;;-4.80;99.90;;;;;;5090605;28;20174;-77
2024/01/09 04:57:05;;;;;;;5.60;3.77;;;-4.80;99.90;;;;;;5092299;28;20163;-76
2024/01/09 04:59:31;;;;;;;5.33;3.23;;;-4.80;99.90;;;;;;5090542;28;20188;-76
2024/01/09 05:01:59;;;;;;;6.47;3.77;;;-4.80;99.90;;;;;;5091885;28;20223;-76
2024/01/09 05:04:24;;;;;;;6.30;3.60;;;-4.80;99.90;;;;;;5090873;28;20184;-76
2024/01/09 05:06:50;;;;;;;5.40;3.70;;;-4.80;99.90;;;;;;5090547;28;20286;-75
2024/01/09 05:09:15;;;;;;;7.30;4.57;;;-4.80;99.90;;;;;;5090554;28;20539;-76
2024/01/09 05:11:41;;;;;;;7.30;3.93;;;-4.80;99.90;;;;;;5090516;28;20304;-76
2024/01/09 05:14:06;;;;;;;6.57;4.20;;;-4.80;99.90;;;;;;5092162;28;20223;-76
2024/01/09 05:16:32;;;;;;;6.23;3.90;;;-4.80;99.90;;;;;;5092612;28;20601;-76
2024/01/09 05:18:57;;;;;;;7.87;3.77;;;-4.90;99.90;;;;;;5094310;28;20642;-76
2024/01/09 05:21:23;;;;;;;6.60;4.07;;;-4.90;99.90;;;;;;5095541;28;20177;-76
2024/01/09 05:23:48;;;;;;;6.80;3.90;;;-4.90;99.90;;;;;;5095432;28;20256;-76
2024/01/09 05:26:14;;;;;;;9.80;3.83;;;-4.90;99.90;;;;;;5095131;28;20230;-75
2024/01/09 05:28:39;;;;;;;6.30;3.87;;;-4.90;99.90;;;;;;5095386;28;20258;-76
2024/01/09 05:31:05;;;;;;;6.83;4.13;;;-4.90;99.90;;;;;;5095340;28;20198;-76
2024/01/09 05:33:31;;;;;;;7.07;3.97;;;-4.90;99.90;;;;;;5093842;28;20604;-75
2024/01/09 05:35:58;;;;;;;5.70;3.87;;;-4.90;99.90;;;;;;5095355;28;20237;-77
2024/01/09 05:38:23;;;;;;;5.77;3.80;;;-5.00;99.90;;;;;;5095213;28;20641;-76
2024/01/09 05:40:49;;;;;;;7.03;4.30;;;-4.90;99.90;;;;;;5095616;28;20167;-76
2024/01/09 05:43:15;;;;;;;7.63;3.70;;;-5.00;99.90;;;;;;5093743;28;20261;-76
2024/01/09 05:45:40;;;;;;;8.63;4.40;;;-4.90;99.90;;;;;;5095380;28;20288;-76
2024/01/09 05:48:06;;;;;;;8.03;3.93;;;-4.90;99.90;;;;;;5093494;28;20202;-75
2024/01/09 05:50:32;;;;;;;7.87;4.67;;;-4.90;99.90;;;;;;5094957;28;20198;-75
2024/01/09 05:52:57;;;;;;;6.53;4.13;;;-4.90;99.90;;;;;;5095115;28;20166;-75
2024/01/09 05:55:23;;;;;;;5.47;3.60;;;-5.00;99.90;;;;;;5094894;28;20319;-75
2024/01/09 05:57:49;;;;;;;7.90;4.40;;;-5.00;99.90;;;;;;5093319;28;20166;-75
2024/01/09 06:00:16;;;;;;;6.77;3.90;;;-4.90;99.90;;;;;;5094800;28;20494;-75
2024/01/09 06:02:42;;;;;;;8.87;4.10;;;-5.00;99.90;;;;;;5093428;28;20599;-75
2024/01/09 06:05:07;;;;;;;7.50;4.40;;;-5.00;99.90;;;;;;5093464;28;20198;-75
2024/01/09 06:07:33;;;;;;;6.87;4.20;;;-4.90;99.90;;;;;;5095049;28;20194;-75
2024/01/09 06:09:58;;;;;;;7.20;4.13;;;-4.90;99.90;;;;;;5094713;28;20167;-75
2024/01/09 06:12:24;;;;;;;6.67;3.87;;;-4.90;99.90;;;;;;5094469;28;20666;-75
2024/01/09 06:14:50;;;;;;;7.37;3.67;;;-4.90;99.90;;;;;;5094493;28;20201;-75
2024/01/09 06:17:15;;;;;;;10.30;4.47;;;-4.90;99.90;;;;;;5094490;28;20712;-75
2024/01/09 06:19:41;;;;;;;7.40;4.03;;;-4.90;99.90;;;;;;5093089;28;20268;-74
2024/01/09 06:22:07;;;;;;;7.73;4.37;;;-4.90;99.90;;;;;;5094533;28;20178;-76
2024/01/09 06:24:33;;;;;;;5.87;3.90;;;-4.90;99.90;;;;;;5094515;28;20180;-75
2024/01/09 06:26:58;;;;;;;8.40;4.60;;;-4.90;99.90;;;;;;5094096;28;20205;-75
2024/01/09 06:29:24;;;;;;;8.17;4.97;;;-4.90;99.90;;;;;;5094226;28;20170;-75
2024/01/09 06:31:50;;;;;;;9.37;4.60;;;-4.90;99.90;;;;;;5094317;28;20174;-75
2024/01/09 06:34:15;;;;;;;6.87;4.20;;;-5.00;99.90;;;;;;5094376;28;20690;-75
2024/01/09 06:36:45;;;;;;;10.13;4.00;;;-4.90;99.90;;;;;;5092723;28;20228;-75
2024/01/09 06:39:11;;;;;;;7.90;4.33;;;-5.00;99.90;;;;;;5093916;28;20171;-75
2024/01/09 06:41:36;;;;;;;7.47;4.40;;;-5.00;99.90;;;;;;5093925;28;20176;-73
2024/01/09 06:44:02;;;;;;;5.97;3.80;;;-5.00;99.90;;;;;;5092616;28;20672;-76
2024/01/09 06:46:28;;;;;;;7.70;4.80;;;-5.00;99.90;;;;;;5093734;28;20194;-76
2024/01/09 06:48:53;;;;;;;5.57;3.83;;;-5.00;99.90;;;;;;5092477;28;20630;-75
2024/01/09 06:51:19;;;;;;;7.87;4.00;;;-5.00;99.90;;;;;;5093673;28;20244;-75
2024/01/09 06:53:44;;;;;;;8.50;3.77;;;-5.00;99.90;;;;;;5093522;28;20224;-75
2024/01/09 06:56:10;;;;;;;8.97;4.57;;;-5.10;99.90;;;;;;5093534;28;20199;-75
2024/01/09 06:58:35;;;;;;;6.10;4.27;;;-5.00;99.90;;;;;;5093509;28;20673;-75
2024/01/09 07:01:01;;;;;;;6.63;4.50;;;-5.00;99.90;;;;;;5093504;28;20261;-75
2024/01/09 07:03:26;;;;;;;6.27;4.30;;;-5.10;99.90;;;;;;5093536;28;20219;-75
2024/01/09 07:05:52;;;;;;;7.93;4.30;;;-5.10;99.90;;;;;;5091992;28;20364;-75
2024/01/09 07:08:18;;;;;;;7.97;4.37;;;-5.10;99.90;;;;;;5092170;28;20170;-75
2024/01/09 07:10:43;;;;;;;6.47;4.47;;;-5.10;99.90;;;;;;5093614;28;20163;-75
2024/01/09 07:13:09;;;;;;;8.17;3.97;;;-5.10;99.90;;;;;;5092018;28;20199;-75
2024/01/09 07:15:34;;;;;;;7.77;4.67;;;-5.10;99.90;;;;;;5093251;28;20208;-75
2024/01/09 07:18:00;;;;;;;8.47;4.77;;;-5.10;99.90;;;;;;5093316;28;20244;-75
2024/01/09 07:20:25;;;;;;;7.77;4.93;;;-5.20;99.90;;;;;;5092004;28;20171;-74
2024/01/09 07:22:51;;;;;;;8.83;4.13;;;-5.20;99.90;;;;;;5092479;28;20171;-75
2024/01/09 07:25:17;;;;;;;7.03;4.67;;;-5.20;99.90;;;;;;5093058;28;20240;-75
2024/01/09 07:27:42;;;;;;;7.13;4.57;;;-5.20;99.90;;;;;;5092917;28;20198;-75
2024/01/09 07:30:08;;;;;;;6.30;3.83;;;-5.20;99.90;;;;;;5093045;28;20650;-74
2024/01/09 07:32:34;;;;;;;7.03;4.27;;;-5.30;99.90;;;;;;5092845;28;20529;-75
2024/01/09 07:34:59;;;;;;;7.63;4.20;;;-5.30;99.90;;;;;;5092798;28;20187;-75
2024/01/09 07:37:25;;;;;;;6.03;4.27;;;-5.20;99.90;;;;;;5092870;28;20643;-75
2024/01/09 07:39:50;;;;;;;8.17;4.53;;;-5.30;99.90;;;;;;5092711;28;20613;-75
2024/01/09 07:42:16;;;;;;;7.60;4.63;;;-5.30;99.90;;;;;;5092629;28;20210;-75
2024/01/09 07:44:41;;;;;;;8.03;4.60;;;-5.30;99.90;;;;;;5093023;28;20502;-75
2024/01/09 07:47:13;;;;;;;7.67;4.27;;;-5.30;99.90;;;;;;5092634;28;20194;-73
2024/01/09 07:49:39;;;;;;;7.87;4.70;;;-5.30;99.90;;;;;;5091423;28;20168;-75
2024/01/09 07:52:05;;;;;;;9.83;4.73;;;-5.40;99.90;;;;;;5092978;28;20162;-77
2024/01/09 07:54:30;;;;;;;7.13;4.37;;;-5.40;99.90;;;;;;5093000;28;20683;-77
2024/01/09 07:56:56;;;;;;;7.87;4.37;;;-5.40;99.90;;;;;;5091359;28;20195;-77
2024/01/09 07:59:22;;;;;;;7.50;4.27;;;-5.40;99.90;;;;;;5092917;28;20303;-74
2024/01/09 08:01:54;;;;;;;12.87;5.20;;;-5.40;99.90;;;;;;5092474;28;20176;-75
2024/01/09 08:04:20;;;;;;;12.93;4.93;;;-5.40;99.90;;;;;;5092957;28;20176;-75
2024/01/09 08:06:46;;;;;;;8.67;4.97;;;-5.40;99.90;;;;;;5093179;28;20203;-75
2024/01/09 08:09:13;;;;;;;7.80;4.33;;;-5.40;99.90;;;;;;5090965;28;20170;-75
2024/01/09 08:11:38;;;;;;;7.13;3.80;;;-5.40;99.90;;;;;;5092592;28;20299;-75
2024/01/09 08:14:04;;;;;;;7.77;4.77;;;-5.40;99.90;;;;;;5092575;28;20198;-75
2024/01/09 08:16:29;;;;;;;11.33;4.97;;;-5.40;99.90;;;;;;5093093;28;20239;-75
2024/01/09 08:18:55;;;;;;;10.07;5.10;;;-5.30;99.90;;;;;;5096347;28;20174;-75
2024/01/09 08:21:20;;;;;;;8.83;4.53;;;-5.30;99.90;;;;;;5093288;28;20174;-76
2024/01/09 08:23:46;;;;;;;10.40;5.37;;;-5.30;99.90;;;;;;5090835;28;20199;-75
2024/01/09 08:26:13;;;;;;;7.23;4.37;;;-5.20;99.90;;;;;;5091924;28;20627;-75
2024/01/09 08:28:38;;;;;;;9.17;4.40;;;-5.20;99.90;;;;;;5092237;28;20163;-75
2024/01/09 08:31:04;;;;;;;7.60;4.73;;;-5.20;99.90;;;;;;5092113;28;20162;-76
2024/01/09 08:33:33;;;;;;;7.93;5.33;;;-5.20;99.90;;;;;;5091983;28;20189;-75
2024/01/09 08:35:59;;;;;;;8.23;4.67;;;-5.10;99.90;;;;;;5090659;28;20190;-75
2024/01/09 08:38:25;;;;;;;8.93;5.50;;;-5.10;99.90;;;;;;5092460;28;20660;-75
2024/01/09 08:40:53;;;;;;;11.07;5.30;;;-5.10;99.90;;;;;;5092221;28;20292;-76
2024/01/09 08:43:19;;;;;;;7.30;4.43;;;-5.10;99.90;;;;;;5092058;28;20178;-75
2024/01/09 08:45:46;;;;;;;11.23;5.90;;;-5.00;99.90;;;;;;5092067;28;20190;-75
2024/01/09 08:48:11;;;;;;;9.10;5.27;;;-5.00;99.90;;;;;;5090763;28;20204;-75
2024/01/09 08:50:37;;;;;;;7.30;4.90;;;-5.00;99.90;;;;;;5092115;28;20171;-76
2024/01/09 08:53:02;;;;;;;9.17;5.07;;;-5.00;99.90;;;;;;5095621;28;20211;-76
2024/01/09 08:55:28;;;;;;;6.67;4.47;;;-4.90;99.90;;;;;;5096022;28;20240;-75
2024/01/09 08:57:53;;;;;;;9.40;4.80;;;-4.90;99.90;;;;;;5096346;28;20650;-76
2024/01/09 09:00:19;;;;;;;8.53;5.30;;;-4.90;99.90;;;;;;5096503;28;20666;-76
2024/01/09 09:02:45;;;;;;;7.30;4.90;;;-4.80;99.90;;;;;;5096342;28;20212;-75
2024/01/09 09:05:11;;;;;;;7.47;5.23;;;-4.80;99.90;;;;;;5099901;28;20188;-75
2024/01/09 09:07:37;;;;;;;9.10;5.07;;;-4.80;99.90;;;;;;5104389;28;20186;-73
2024/01/09 09:10:02;;;;;;;7.03;5.00;;;-4.70;99.90;;;;;;5104415;28;20167;-73
2024/01/09 09:12:28;;;;;;;6.33;4.67;;;-4.70;99.90;;;;;;5104020;28;20177;-74
2024/01/09 09:14:54;;;;;;;7.40;4.63;;;-4.70;99.90;;;;;;5103156;28;20170;-72
2024/01/09 09:17:19;;;;;;;10.57;5.20;;;-4.60;99.90;;;;;;5101233;28;20174;-73
2024/01/09 09:19:45;;;;;;;8.37;5.10;;;-4.60;99.90;;;;;;5101098;28;20178;-73
2024/01/09 09:22:12;;;;;;;8.87;5.00;;;-4.50;99.90;;;;;;5101434;28;20170;-74
2024/01/09 09:24:38;;;;;;;9.47;5.03;;;-4.50;99.90;;;;;;5102715;28;20173;-74
2024/01/09 09:27:04;;;;;;;7.50;4.77;;;-4.40;99.90;;;;;;5101857;28;20197;-74
2024/01/09 09:29:30;;;;;;;7.87;4.40;;;-4.40;99.90;;;;;;5103427;28;20202;-74
2024/01/09 09:31:55;;;;;;;9.73;5.17;;;-4.40;99.90;;;;;;5104271;28;20232;-75
2024/01/09 09:34:21;;;;;;;10.33;5.23;;;-4.30;99.90;;;;;;5104484;28;20189;-74
2024/01/09 09:36:46;;;;;;;7.23;4.90;;;-4.30;99.90;;;;;;5103854;28;20565;-74
2024/01/09 09:39:13;;;;;;;8.50;4.90;;;-4.20;99.90;;;;;;5100599;28;20284;-74
2024/01/09 09:41:43;;;;;;;7.60;5.03;;;-4.20;99.90;;;;;;5093924;28;20175;-74
2024/01/09 09:44:13;;;;;;;6.90;4.43;;;-4.20;99.90;;;;;;5093843;28;20269;-74
2024/01/09 09:46:40;;;;;;;10.33;4.97;;;-4.10;99.90;;;;;;5094765;28;20217;-74
2024/01/09 09:49:07;;;;;;;9.13;5.00;;;-4.10;99.90;;;;;;5094779;28;20190;-74
2024/01/09 09:51:35;;;;;;;9.50;4.70;;;-4.00;99.90;;;;;;5093492;28;20598;-74
2024/01/09 09:54:02;;;;;;;9.80;5.07;;;-4.00;99.90;;;;;;5093593;28;20690;-74
2024/01/09 09:56:28;;;;;;;7.97;4.97;;;-3.90;99.90;;;;;;5094844;28;20227;-73
2024/01/09 09:58:54;;;;;;;9.60;6.77;;;-3.90;99.90;;;;;;5094960;28;20263;-74
2024/01/09 10:01:22;;;;;;;12.50;4.70;;;-3.80;99.90;;;;;;5094676;28;20312;-73
2024/01/09 10:03:57;;;;;;;8.03;5.00;;;-3.80;99.90;;;;;;5094551;28;20174;-74
2024/01/09 10:06:24;;;;;;;9.63;5.67;;;-3.80;99.90;;;;;;5094564;28;20198;-74
2024/01/09 10:08:53;;;;;;;9.30;5.20;;;-3.70;99.90;;;;;;5094691;28;20672;-74
2024/01/09 10:11:18;;;;;;;8.93;5.13;;;-3.60;99.90;;;;;;5093215;28;20271;-74
2024/01/09 10:13:44;;;;;;;9.93;5.20;;;-3.60;99.90;;;;;;5094348;28;20292;-74
2024/01/09 10:16:10;;;;;;;8.20;4.30;;;-3.60;99.90;;;;;;5092802;28;20198;-74
2024/01/09 10:18:37;;;;;;;9.63;4.60;;;-3.50;99.90;;;;;;5093057;28;20650;-74
2024/01/09 10:21:03;;;;;;;7.93;4.93;;;-3.50;99.90;;;;;;5093067;28;20218;-74
2024/01/09 10:23:29;;;;;;;7.47;3.97;;;-3.40;99.90;;;;;;5094206;28;20171;-75
2024/01/09 10:25:56;;;;;;;8.20;4.90;;;-3.40;99.90;;;;;;5092735;28;20281;-74
2024/01/09 10:28:22;;;;;;;8.43;5.17;;;-3.30;99.90;;;;;;5094253;28;20221;-75
2024/01/09 10:30:51;;;;;;;7.97;4.83;;;-3.30;99.90;;;;;;5094503;28;20265;-74
2024/01/09 10:33:17;;;;;;;7.53;4.43;;;-3.20;99.90;;;;;;5096270;28;20182;-74
2024/01/09 10:35:43;;;;;;;8.23;4.63;;;-3.20;99.90;;;;;;5095805;28;20202;-74
2024/01/09 10:38:10;;;;;;;8.47;5.00;;;-3.10;99.90;;;;;;5094445;28;20217;-75
2024/01/09 10:40:36;;;;;;;6.60;4.07;;;-3.10;99.90;;;;;;5093904;28;20175;-74
2024/01/09 10:43:02;;;;;;;9.43;4.50;;;-3.10;99.90;;;;;;5093836;28;20678;-75
2024/01/09 10:45:28;;;;;;;6.23;4.50;;;-3.00;99.90;;;;;;5092329;28;20202;-74
2024/01/09 10:47:54;;;;;;;6.23;4.23;;;-3.10;99.90;;;;;;5093686;28;20189;-74
2024/01/09 10:50:24;;;;;;;9.07;4.57;;;-3.00;99.90;;;;;;5092229;28;20247;-74
2024/01/09 10:52:50;;;;;;;6.60;4.57;;;-3.00;99.90;;;;;;5093564;28;20176;-74
2024/01/09 10:55:19;;;;;;;8.10;5.33;;;-3.00;99.90;;;;;;5092308;28;20194;-74
2024/01/09 10:57:46;;;;;;;7.80;4.53;;;-2.90;99.90;;;;;;5093764;28;20602;-74
2024/01/09 11:00:12;;;;;;;7.13;4.87;;;-2.90;99.90;;;;;;5093560;28;20536;-74
2024/01/09 11:02:40;;;;;;;9.20;4.23;;;-2.80;99.90;;;;;;5091993;28;20259;-75
2024/01/09 11:05:07;;;;;;;7.60;4.87;;;-2.80;99.90;;;;;;5093404;28;20201;-75
2024/01/09 11:07:33;;;;;;;7.27;4.17;;;-2.70;99.90;;;;;;5093860;28;20224;-75
2024/01/09 11:10:00;;;;;;;7.70;4.60;;;-2.60;99.90;;;;;;5093520;28;20164;-75
2024/01/09 11:12:49;;;;;;;11.17;4.70;;;-2.60;99.90;;;;;;5093519;28;20175;-74
2024/01/09 11:15:23;;;;;;;9.37;4.13;;;-2.60;99.90;;;;;;5092636;28;20200;-75
2024/01/09 11:18:08;;;;;;;6.70;4.40;;;-2.50;99.90;;;;;;5091820;28;20208;-75
2024/01/09 11:20:34;;;;;;;14.63;4.67;;;-2.40;99.90;;;;;;5093546;28;20229;-74
2024/01/09 11:23:00;;;;;;;7.30;4.47;;;-2.40;99.90;;;;;;5093050;28;20608;-75
2024/01/09 11:25:32;;;;;;;6.73;4.20;;;-2.30;99.90;;;;;;5092977;28;20218;-75
2024/01/09 11:27:58;;;;;;;7.07;4.00;;;-2.20;99.90;;;;;;5093270;28;20197;-74
2024/01/09 11:30:29;;;;;;;7.90;4.37;;;-2.20;99.90;;;;;;5092389;28;20178;-74
2024/01/09 11:33:18;;;;;;;8.07;4.33;;;-2.20;99.90;;;;;;5092858;28;20192;-75
2024/01/09 11:35:44;;;;;;;7.53;4.20;;;-2.20;99.90;;;;;;5092729;28;20613;-75
2024/01/09 11:38:10;;;;;;;7.47;4.13;;;-2.10;99.90;;;;;;5092745;28;20181;-75
2024/01/09 11:40:35;;;;;;;8.77;4.97;;;-2.10;99.90;;;;;;5092855;28;20222;-75
2024/01/09 11:43:02;;;;;;;6.77;4.57;;;-2.00;99.90;;;;;;5093018;28;20177;-75
2024/01/09 11:45:27;;;;;;;6.93;4.57;;;-1.90;99.90;;;;;;5091475;28;20194;-75
2024/01/09 11:47:56;;;;;;;7.90;4.77;;;-1.90;99.90;;;;;;5092885;28;20211;-75
2024/01/09 11:50:22;;;;;;;9.37;4.47;;;-1.90;99.90;;;;;;5091393;28;20240;-74
2024/01/09 11:52:48;;;;;;;9.07;4.43;;;-1.80;99.90;;;;;;5092535;28;20174;-75
2024/01/09 11:55:14;;;;;;;6.97;4.27;;;-1.80;99.90;;;;;;5091158;28;20193;-75
2024/01/09 11:57:42;;;;;;;6.40;4.20;;;-1.80;99.90;;;;;;5092656;28;20237;-73
2024/01/09 12:00:09;;;;;;;7.13;4.47;;;-1.70;99.90;;;;;;5091127;28;20200;-74
2024/01/09 12:02:39;;;;;;;9.33;4.93;;;-1.70;99.90;;;;;;5090941;28;20180;-75
2024/01/09 12:05:06;;;;;;;8.23;4.60;;;-1.60;99.90;;;;;;5092373;28;20234;-75
2024/01/09 12:07:33;;;;;;;7.37;4.27;;;-1.60;99.90;;;;;;5092323;28;20215;-75
2024/01/09 12:10:04;;;;;;;7.80;4.40;;;-1.60;99.90;;;;;;5092379;28;20173;-75
2024/01/09 12:12:30;;;;;;;7.57;4.20;;;-1.50;99.90;;;;;;5092523;28;20199;-75
2024/01/09 12:14:57;;;;;;;7.23;4.27;;;-1.50;99.90;;;;;;5090982;28;20264;-75
2024/01/09 12:17:27;;;;;;;6.60;3.77;;;-1.40;99.90;;;;;;5092585;28;20468;-75
2024/01/09 12:19:53;;;;;;;6.37;3.83;;;-1.40;99.90;;;;;;5090782;28;20187;-75
2024/01/09 12:22:22;;;;;;;6.90;3.60;;;-1.40;99.90;;;;;;5091146;28;20177;-75
2024/01/09 12:24:53;;;;;;;7.63;4.30;;;-1.30;99.90;;;;;;5092479;28;20546;-75
2024/01/09 12:27:23;;;;;;;6.37;3.83;;;-1.30;99.90;;;;;;5092414;28;20612;-74
2024/01/09 12:29:49;;;;;;;5.50;3.77;;;-1.30;99.90;;;;;;5090841;28;20177;-77
2024/01/09 12:32:15;;;;;;;7.13;4.23;;;-1.20;99.90;;;;;;5092004;28;20734;-75
2024/01/09 12:34:41;;;;;;;5.73;3.80;;;-1.20;99.90;;;;;;5092326;28;20193;-74
2024/01/09 12:37:08;;;;;;;7.83;3.77;;;-1.10;99.90;;;;;;5090675;28;20286;-74
2024/01/09 12:39:35;;;;;;;6.43;3.70;;;-1.10;99.90;;;;;;5091956;28;20221;-77
2024/01/09 12:42:12;;;;;;;6.30;3.50;;;-1.10;99.90;;;;;;5090718;28;20185;-75